WAT3043 LIPZ-LFLL
Flight info
| Callsign | WAT3043 |
|---|---|
| Flight time | 0h 59m |
| Altitude | 31000 |
| Route | VIC DCT ADOSA DCT VAKON DCT EVANO DCT TUPUP DCT RONOP/N0421F280 DCT GIGUS/N0415F270 Z40 AMVAR |
| Aircraft | A20N/M-SDE2E3FGHIRWXY/LB1 |
Departure
| Time | 2026-05-04 11:33 |
|---|---|
| Airport | Venice Marco Polo Airport (LIPZ) |
Arrival
| Time | 2026-05-04 12:32 |
|---|---|
| Airport | Lyon Saint-Exupéry Airport (LFLL) |
| Time | Latitude | Longitude | Altitude | Speed | Heading |
|---|---|---|---|---|---|
| 2026-05-04 11:16 | 45.50778 | 12.33964 | 9 ft | 0 kts | 223° |
| 2026-05-04 11:22 | 45.50856 | 12.34062 | 9 ft | 3 kts | 199° |
| 2026-05-04 11:22 | 45.50880 | 12.34057 | 9 ft | 3 kts | 144° |
| 2026-05-04 11:23 | 45.50886 | 12.34050 | 9 ft | 0 kts | 131° |
| 2026-05-04 11:24 | 45.50645 | 12.34340 | 9 ft | 11 kts | 121° |
| 2026-05-04 11:25 | 45.50613 | 12.34453 | 7 ft | 13 kts | 109° |
| 2026-05-04 11:25 | 45.50601 | 12.34528 | 7 ft | 0 kts | 86° |
| 2026-05-04 11:26 | 45.50602 | 12.34536 | 7 ft | 1 kts | 86° |
| 2026-05-04 11:27 | 45.50830 | 12.35048 | 9 ft | 13 kts | 42° |
| 2026-05-04 11:28 | 45.50898 | 12.35138 | 9 ft | 13 kts | 43° |
| 2026-05-04 11:28 | 45.50957 | 12.35234 | 10 ft | 10 kts | 68° |
| 2026-05-04 11:28 | 45.50959 | 12.35244 | 10 ft | 0 kts | 68° |
| 2026-05-04 11:29 | 45.50970 | 12.35284 | 10 ft | 16 kts | 73° |
| 2026-05-04 11:29 | 45.51004 | 12.35440 | 12 ft | 16 kts | 56° |
| 2026-05-04 11:29 | 45.51077 | 12.35562 | 12 ft | 16 kts | 43° |
| 2026-05-04 11:29 | 45.51167 | 12.35682 | 12 ft | 18 kts | 42° |
| 2026-05-04 11:31 | 45.51609 | 12.36576 | 6 ft | 14 kts | 165° |
| 2026-05-04 11:33 | 45.47039 | 12.30831 | 2344 ft | 194 kts | 221° |
| 2026-05-04 11:33 | 45.45987 | 12.29464 | 2846 ft | 214 kts | 221° |
| 2026-05-04 11:33 | 45.44878 | 12.28018 | 3555 ft | 221 kts | 221° |
| 2026-05-04 11:34 | 45.43736 | 12.26541 | 4397 ft | 223 kts | 221° |
| 2026-05-04 11:34 | 45.42603 | 12.25078 | 5222 ft | 226 kts | 221° |
| 2026-05-04 11:34 | 45.41436 | 12.23574 | 6067 ft | 228 kts | 221° |
| 2026-05-04 11:34 | 45.40266 | 12.22071 | 6917 ft | 230 kts | 221° |
| 2026-05-04 11:35 | 45.39191 | 12.20436 | 7716 ft | 233 kts | 240° |
| 2026-05-04 11:35 | 45.38804 | 12.18206 | 8534 ft | 238 kts | 272° |
| 2026-05-04 11:35 | 45.39303 | 12.15979 | 9316 ft | 244 kts | 303° |
| 2026-05-04 11:35 | 45.40407 | 12.14160 | 10102 ft | 247 kts | 311° |
| 2026-05-04 11:36 | 45.41547 | 12.12323 | 10857 ft | 250 kts | 300° |
| 2026-05-04 11:36 | 45.42073 | 12.10031 | 11592 ft | 248 kts | 268° |
| 2026-05-04 11:36 | 45.41723 | 12.07651 | 12162 ft | 256 kts | 244° |
| 2026-05-04 11:36 | 45.40911 | 12.05291 | 12630 ft | 273 kts | 242° |
| 2026-05-04 11:37 | 45.40047 | 12.02793 | 13068 ft | 291 kts | 242° |
| 2026-05-04 11:37 | 45.39291 | 12.00032 | 13440 ft | 312 kts | 257° |
| 2026-05-04 11:37 | 45.39267 | 11.96848 | 13817 ft | 334 kts | 279° |
| 2026-05-04 11:37 | 45.40127 | 11.93711 | 14132 ft | 357 kts | 301° |
| 2026-05-04 11:38 | 45.41901 | 11.91081 | 14461 ft | 377 kts | 321° |
| 2026-05-04 11:38 | 45.44028 | 11.88874 | 15054 ft | 385 kts | 322° |
| 2026-05-04 11:38 | 45.46184 | 11.86620 | 15771 ft | 389 kts | 322° |
| 2026-05-04 11:38 | 45.48352 | 11.84310 | 16466 ft | 392 kts | 321° |
| 2026-05-04 11:39 | 45.50551 | 11.81943 | 17166 ft | 395 kts | 321° |
| 2026-05-04 11:39 | 45.52722 | 11.79595 | 17832 ft | 398 kts | 321° |
| 2026-05-04 11:40 | 45.63838 | 11.62529 | 21619 ft | 405 kts | 274° |
| 2026-05-04 11:41 | 45.63909 | 11.58543 | 22232 ft | 406 kts | 270° |
| 2026-05-04 11:41 | 45.63937 | 11.54485 | 22719 ft | 411 kts | 270° |
| 2026-05-04 11:41 | 45.63969 | 11.50390 | 23117 ft | 418 kts | 270° |
| 2026-05-04 11:41 | 45.64010 | 11.46187 | 23641 ft | 421 kts | 270° |
| 2026-05-04 11:42 | 45.64053 | 11.42009 | 24162 ft | 424 kts | 270° |
| 2026-05-04 11:42 | 45.64099 | 11.37793 | 24645 ft | 427 kts | 270° |
| 2026-05-04 11:42 | 45.64146 | 11.33533 | 25116 ft | 429 kts | 270° |
| 2026-05-04 11:42 | 45.64191 | 11.29280 | 25702 ft | 429 kts | 269° |
| 2026-05-04 11:43 | 45.64236 | 11.25042 | 26358 ft | 426 kts | 269° |
| 2026-05-04 11:43 | 45.64278 | 11.20871 | 26998 ft | 424 kts | 269° |
| 2026-05-04 11:43 | 45.64317 | 11.16690 | 27600 ft | 423 kts | 269° |
| 2026-05-04 11:43 | 45.64355 | 11.12501 | 28203 ft | 421 kts | 269° |
| 2026-05-04 11:44 | 45.64355 | 11.08360 | 28790 ft | 419 kts | 267° |
| 2026-05-04 11:44 | 45.64195 | 11.04200 | 29373 ft | 417 kts | 264° |
| 2026-05-04 11:44 | 45.63865 | 11.00071 | 29886 ft | 417 kts | 261° |
| 2026-05-04 11:44 | 45.63367 | 10.95994 | 30309 ft | 418 kts | 258° |
| 2026-05-04 11:45 | 45.62740 | 10.91925 | 30688 ft | 420 kts | 257° |
| 2026-05-04 11:45 | 45.62100 | 10.87885 | 31014 ft | 423 kts | 256° |
| 2026-05-04 11:45 | 45.61447 | 10.83787 | 31060 ft | 424 kts | 256° |
| 2026-05-04 11:46 | 45.60138 | 10.75585 | 31064 ft | 425 kts | 256° |
| 2026-05-04 11:46 | 45.58816 | 10.67335 | 31062 ft | 425 kts | 256° |
| 2026-05-04 11:47 | 45.57501 | 10.59152 | 31066 ft | 424 kts | 256° |
| 2026-05-04 11:47 | 45.56178 | 10.50970 | 31070 ft | 424 kts | 256° |
| 2026-05-04 11:48 | 45.55071 | 10.44152 | 31071 ft | 424 kts | 256° |
| 2026-05-04 11:48 | 45.53536 | 10.34738 | 31068 ft | 424 kts | 255° |
| 2026-05-04 11:49 | 45.52198 | 10.26573 | 31068 ft | 423 kts | 255° |
| 2026-05-04 11:49 | 45.50851 | 10.18391 | 31066 ft | 424 kts | 255° |
| 2026-05-04 11:50 | 45.49506 | 10.10265 | 31064 ft | 424 kts | 255° |
| 2026-05-04 11:50 | 45.48175 | 10.02243 | 31063 ft | 424 kts | 256° |
| 2026-05-04 11:51 | 45.47140 | 9.93957 | 31061 ft | 425 kts | 259° |
| 2026-05-04 11:51 | 45.46233 | 9.85623 | 31059 ft | 426 kts | 259° |
| 2026-05-04 11:52 | 45.45329 | 9.77347 | 31065 ft | 425 kts | 259° |
| 2026-05-04 11:52 | 45.44419 | 9.69071 | 31066 ft | 424 kts | 259° |
| 2026-05-04 11:53 | 45.43499 | 9.60780 | 31070 ft | 424 kts | 259° |
| 2026-05-04 11:53 | 45.42575 | 9.52497 | 31070 ft | 423 kts | 259° |
| 2026-05-04 11:55 | 45.38816 | 9.19425 | 31075 ft | 423 kts | 258° |
| 2026-05-04 11:56 | 45.37864 | 9.11176 | 31074 ft | 424 kts | 258° |
| 2026-05-04 11:56 | 45.36904 | 9.02917 | 31076 ft | 424 kts | 259° |
| 2026-05-04 11:57 | 45.35941 | 8.94672 | 31077 ft | 423 kts | 259° |
| 2026-05-04 11:57 | 45.34974 | 8.86458 | 31083 ft | 422 kts | 259° |
| 2026-05-04 11:58 | 45.34004 | 8.78283 | 31081 ft | 422 kts | 259° |
| 2026-05-04 11:58 | 45.33126 | 8.70004 | 31077 ft | 423 kts | 261° |
| 2026-05-04 11:59 | 45.32357 | 8.61733 | 31083 ft | 424 kts | 261° |
| 2026-05-04 11:59 | 45.31570 | 8.53430 | 31076 ft | 424 kts | 261° |
| 2026-05-04 12:00 | 45.30774 | 8.45167 | 31075 ft | 424 kts | 261° |
| 2026-05-04 12:00 | 45.29985 | 8.37074 | 31079 ft | 423 kts | 261° |
| 2026-05-04 12:01 | 45.29166 | 8.28762 | 31079 ft | 422 kts | 260° |
| 2026-05-04 12:02 | 45.26273 | 7.99882 | 31091 ft | 423 kts | 260° |
| 2026-05-04 12:03 | 45.25438 | 7.91673 | 31100 ft | 421 kts | 260° |
| 2026-05-04 12:03 | 45.24594 | 7.83437 | 31096 ft | 420 kts | 261° |
| 2026-05-04 12:04 | 45.23752 | 7.75275 | 31098 ft | 420 kts | 260° |
| 2026-05-04 12:04 | 45.22897 | 7.67066 | 31097 ft | 420 kts | 260° |
| 2026-05-04 12:05 | 45.22066 | 7.58871 | 31095 ft | 420 kts | 262° |
| 2026-05-04 12:05 | 45.21409 | 7.50635 | 31098 ft | 419 kts | 262° |
| 2026-05-04 12:06 | 45.20756 | 7.42425 | 31098 ft | 419 kts | 262° |
| 2026-05-04 12:06 | 45.20097 | 7.34219 | 31103 ft | 418 kts | 262° |
| 2026-05-04 12:07 | 45.19767 | 7.30172 | 30867 ft | 419 kts | 262° |
| 2026-05-04 12:07 | 45.19429 | 7.26028 | 30590 ft | 418 kts | 262° |
| 2026-05-04 12:07 | 45.19188 | 7.21926 | 30322 ft | 418 kts | 266° |
| 2026-05-04 12:07 | 45.19261 | 7.17822 | 30042 ft | 417 kts | 272° |
| 2026-05-04 12:08 | 45.19656 | 7.13750 | 29772 ft | 418 kts | 278° |
| 2026-05-04 12:08 | 45.20367 | 7.09758 | 29496 ft | 420 kts | 285° |
| 2026-05-04 12:08 | 45.21373 | 7.05850 | 29224 ft | 423 kts | 289° |
| 2026-05-04 12:08 | 45.22481 | 7.01982 | 28953 ft | 424 kts | 289° |
| 2026-05-04 12:09 | 45.23613 | 6.98088 | 28682 ft | 425 kts | 289° |
| 2026-05-04 12:09 | 45.24731 | 6.94232 | 28418 ft | 427 kts | 289° |
| 2026-05-04 12:09 | 45.25859 | 6.90327 | 28148 ft | 428 kts | 289° |
| 2026-05-04 12:09 | 45.26994 | 6.86388 | 27875 ft | 428 kts | 289° |
| 2026-05-04 12:10 | 45.28105 | 6.82512 | 27612 ft | 429 kts | 289° |
| 2026-05-04 12:10 | 45.29234 | 6.78567 | 27347 ft | 431 kts | 289° |
| 2026-05-04 12:10 | 45.30356 | 6.74638 | 27062 ft | 432 kts | 289° |
| 2026-05-04 12:10 | 45.31495 | 6.70634 | 26573 ft | 433 kts | 289° |
| 2026-05-04 12:11 | 45.32621 | 6.66674 | 25894 ft | 435 kts | 289° |
| 2026-05-04 12:11 | 45.33741 | 6.62725 | 25151 ft | 435 kts | 289° |
| 2026-05-04 12:11 | 45.34869 | 6.58742 | 24441 ft | 434 kts | 289° |
| 2026-05-04 12:11 | 45.35990 | 6.54784 | 23920 ft | 429 kts | 289° |
| 2026-05-04 12:12 | 45.37098 | 6.50863 | 23384 ft | 426 kts | 289° |
| 2026-05-04 12:12 | 45.38064 | 6.46965 | 22833 ft | 418 kts | 281° |
| 2026-05-04 12:12 | 45.38500 | 6.42895 | 22285 ft | 409 kts | 270° |
| 2026-05-04 12:12 | 45.38388 | 6.38909 | 21728 ft | 402 kts | 259° |
| 2026-05-04 12:13 | 45.37964 | 6.35013 | 21161 ft | 397 kts | 257° |
| 2026-05-04 12:14 | 45.34821 | 6.08585 | 17274 ft | 378 kts | 257° |
| 2026-05-04 12:15 | 45.34384 | 6.04902 | 16737 ft | 376 kts | 257° |
| 2026-05-04 12:15 | 45.33951 | 6.01276 | 16173 ft | 373 kts | 257° |
| 2026-05-04 12:15 | 45.33520 | 5.97659 | 15616 ft | 371 kts | 257° |
| 2026-05-04 12:15 | 45.33092 | 5.94051 | 15064 ft | 368 kts | 257° |
| 2026-05-04 12:16 | 45.32667 | 5.90485 | 14866 ft | 366 kts | 256° |
| 2026-05-04 12:16 | 45.32236 | 5.86935 | 14882 ft | 369 kts | 257° |
| 2026-05-04 12:16 | 45.31802 | 5.83304 | 14906 ft | 368 kts | 257° |
| 2026-05-04 12:16 | 45.31367 | 5.79713 | 14933 ft | 369 kts | 257° |
| 2026-05-04 12:17 | 45.30931 | 5.76126 | 14955 ft | 369 kts | 257° |
| 2026-05-04 12:17 | 45.30499 | 5.72572 | 14964 ft | 369 kts | 257° |
| 2026-05-04 12:17 | 45.30058 | 5.68916 | 14994 ft | 369 kts | 257° |
| 2026-05-04 12:17 | 45.29628 | 5.65323 | 15029 ft | 369 kts | 257° |
| 2026-05-04 12:18 | 45.29194 | 5.61730 | 15008 ft | 369 kts | 257° |
| 2026-05-04 12:18 | 45.29032 | 5.58209 | 14990 ft | 376 kts | 272° |
| 2026-05-04 12:18 | 45.29735 | 5.54769 | 15019 ft | 385 kts | 292° |
| 2026-05-04 12:18 | 45.31349 | 5.51687 | 15028 ft | 394 kts | 314° |
| 2026-05-04 12:19 | 45.33702 | 5.49574 | 15011 ft | 402 kts | 334° |
| 2026-05-04 12:19 | 45.36290 | 5.48128 | 14619 ft | 404 kts | 334° |
| 2026-05-04 12:19 | 45.38797 | 5.46349 | 13944 ft | 402 kts | 327° |
| 2026-05-04 12:19 | 45.41205 | 5.44332 | 13316 ft | 399 kts | 326° |
| 2026-05-04 12:20 | 45.43582 | 5.42250 | 12721 ft | 396 kts | 325° |
| 2026-05-04 12:20 | 45.45889 | 5.40216 | 12178 ft | 392 kts | 326° |
| 2026-05-04 12:20 | 45.48206 | 5.38176 | 11591 ft | 389 kts | 326° |
| 2026-05-04 12:20 | 45.50648 | 5.36511 | 11096 ft | 387 kts | 339° |
| 2026-05-04 12:21 | 45.53274 | 5.35750 | 10765 ft | 381 kts | 353° |
| 2026-05-04 12:21 | 45.55883 | 5.35548 | 10515 ft | 368 kts | 355° |
| 2026-05-04 12:21 | 45.58438 | 5.35447 | 10346 ft | 354 kts | 357° |
| 2026-05-04 12:21 | 45.60858 | 5.35349 | 10176 ft | 341 kts | 356° |
| 2026-05-04 12:22 | 45.63174 | 5.35235 | 10012 ft | 329 kts | 355° |
| 2026-05-04 12:22 | 45.65424 | 5.35110 | 9977 ft | 313 kts | 355° |
| 2026-05-04 12:22 | 45.67613 | 5.34978 | 9440 ft | 318 kts | 354° |
| 2026-05-04 12:22 | 45.69828 | 5.34840 | 9084 ft | 315 kts | 355° |
| 2026-05-04 12:23 | 45.71989 | 5.34709 | 8757 ft | 311 kts | 355° |
| 2026-05-04 12:23 | 45.74162 | 5.34579 | 8451 ft | 306 kts | 355° |
| 2026-05-04 12:23 | 45.76249 | 5.34261 | 8112 ft | 300 kts | 343° |
| 2026-05-04 12:23 | 45.78189 | 5.33228 | 7717 ft | 296 kts | 330° |
| 2026-05-04 12:24 | 45.80017 | 5.31860 | 7311 ft | 295 kts | 328° |
| 2026-05-04 12:24 | 45.81819 | 5.30448 | 6913 ft | 295 kts | 328° |
| 2026-05-04 12:24 | 45.83587 | 5.28922 | 6504 ft | 293 kts | 322° |
| 2026-05-04 12:24 | 45.85174 | 5.27108 | 6109 ft | 291 kts | 316° |
| 2026-05-04 12:25 | 45.86665 | 5.25177 | 5757 ft | 289 kts | 314° |
| 2026-05-04 12:25 | 45.88133 | 5.23239 | 5512 ft | 282 kts | 314° |
| 2026-05-04 12:25 | 45.89565 | 5.21357 | 5242 ft | 277 kts | 315° |
| 2026-05-04 12:25 | 45.90992 | 5.19489 | 4962 ft | 273 kts | 315° |
| 2026-05-04 12:26 | 45.92383 | 5.17676 | 4687 ft | 269 kts | 315° |
| 2026-05-04 12:26 | 45.93500 | 5.15601 | 4391 ft | 259 kts | 287° |
| 2026-05-04 12:26 | 45.93673 | 5.13114 | 4124 ft | 246 kts | 259° |
| 2026-05-04 12:26 | 45.93379 | 5.10703 | 3872 ft | 241 kts | 255° |
| 2026-05-04 12:27 | 45.92842 | 5.08495 | 3599 ft | 230 kts | 229° |
| 2026-05-04 12:27 | 45.91607 | 5.07181 | 3331 ft | 219 kts | 196° |
| 2026-05-04 12:27 | 45.90115 | 5.06976 | 3094 ft | 212 kts | 174° |
| 2026-05-04 12:27 | 45.88654 | 5.07230 | 3002 ft | 204 kts | 171° |
| 2026-05-04 12:28 | 45.87302 | 5.07479 | 2969 ft | 190 kts | 172° |
| 2026-05-04 12:28 | 45.86046 | 5.07665 | 3090 ft | 171 kts | 173° |
| 2026-05-04 12:28 | 45.84911 | 5.07809 | 2986 ft | 153 kts | 174° |
| 2026-05-04 12:28 | 45.83901 | 5.07929 | 2850 ft | 138 kts | 173° |
| 2026-05-04 12:29 | 45.82962 | 5.08041 | 2648 ft | 133 kts | 173° |
| 2026-05-04 12:29 | 45.82036 | 5.08153 | 2464 ft | 132 kts | 174° |
| 2026-05-04 12:29 | 45.81114 | 5.08264 | 2287 ft | 132 kts | 173° |
| 2026-05-04 12:29 | 45.80198 | 5.08376 | 2117 ft | 131 kts | 175° |
| 2026-05-04 12:30 | 45.79280 | 5.08486 | 1938 ft | 131 kts | 174° |
| 2026-05-04 12:30 | 45.78366 | 5.08596 | 1766 ft | 131 kts | 174° |
| 2026-05-04 12:30 | 45.77462 | 5.08707 | 1590 ft | 130 kts | 176° |
| 2026-05-04 12:30 | 45.76550 | 5.08805 | 1399 ft | 130 kts | 175° |
| 2026-05-04 12:31 | 45.75642 | 5.08919 | 1189 ft | 129 kts | 173° |
| 2026-05-04 12:31 | 45.74749 | 5.09042 | 1000 ft | 128 kts | 174° |
| 2026-05-04 12:31 | 45.73857 | 5.09145 | 867 ft | 128 kts | 175° |
| 2026-05-04 12:31 | 45.72970 | 5.09242 | 795 ft | 123 kts | 173° |
| 2026-05-04 12:32 | 45.72350 | 5.09318 | 808 ft | 50 kts | 178° |
| 2026-05-04 12:32 | 45.72052 | 5.09254 | 813 ft | 0 kts | 202° |
| 2026-05-04 12:32 | 45.72045 | 5.09250 | 813 ft | 1 kts | 202° |
| 2026-05-04 12:33 | 45.72023 | 5.09237 | 813 ft | 6 kts | 203° |
| 2026-05-04 12:33 | 45.71982 | 5.09167 | 812 ft | 13 kts | 255° |
| 2026-05-04 12:33 | 45.71973 | 5.09078 | 810 ft | 2 kts | 264° |
| 2026-05-04 12:33 | 45.71970 | 5.09033 | 810 ft | 6 kts | 264° |
| 2026-05-04 12:34 | 45.71966 | 5.08951 | 808 ft | 10 kts | 266° |
| 2026-05-04 12:34 | 45.71961 | 5.08842 | 806 ft | 11 kts | 265° |
| 2026-05-04 12:34 | 45.71954 | 5.08729 | 804 ft | 10 kts | 265° |
| 2026-05-04 12:34 | 45.71947 | 5.08616 | 802 ft | 12 kts | 264° |
| 2026-05-04 12:35 | 45.71944 | 5.08476 | 800 ft | 15 kts | 274° |
| 2026-05-04 12:35 | 45.71961 | 5.08346 | 799 ft | 13 kts | 285° |
| 2026-05-04 12:35 | 45.72020 | 5.08249 | 797 ft | 14 kts | 359° |
| 2026-05-04 12:35 | 45.72118 | 5.08292 | 797 ft | 14 kts | 19° |
| 2026-05-04 12:36 | 45.72210 | 5.08309 | 795 ft | 9 kts | 351° |
| 2026-05-04 12:36 | 45.72265 | 5.08262 | 794 ft | 7 kts | 255° |
| 2026-05-04 12:36 | 45.72262 | 5.08206 | 794 ft | 4 kts | 279° |
| 2026-05-04 12:36 | 45.72263 | 5.08194 | 794 ft | 0 kts | 274° |